PHX weather

Phoenix Sky Harbor International Airport
Phoenix, Arizona, United States

Public forecast

Using degrees Fahrenheit for public forecast. Weather courtesy of forecast.io.

METAR (pilot weather report)

Retrieved 2017/08/18 01:51 UTC (31 minutes ago):

KPHX 180151Z 01005KT 10SM FEW120 38/M01 A2984 RMK AO2 SLP083 T03781011

TAF (pilot weather forecast)

Forecast is more than 12 hours old.

Retrieved 2017/08/17 00:39 UTC (1 day ago):

TAF KPHX 172336Z 1800/1906 VRB05KT P6SM SKC FM180100 24005KT P6SM SKC FM180600 11005KT P6SM SKC FM182200 26007KT P6SM SKC